Time;durP1;ratioP1;P1;durP2;ratioP2;P2;SDS_P1;SDS_P2;PMS_P1;PMS_P2;Temp;Humidity;BMP_temperature;BMP_pressure;BME280_temperature;BME280_humidity;BME280_pressure;Samples;Min_cycle;Max_cycle;Signal;HPM_P1;HPM_P2
2022/10/13 00:02:12;;;;;;;10.50;5.70;;;15.50;95.90;;;16.01;62.89;99207.84;4956873;28;125187;-71
2022/10/13 00:04:38;;;;;;;10.73;6.33;;;15.60;95.90;;;16.04;62.98;99210.78;4961887;28;123858;-71
2022/10/13 00:07:05;;;;;;;9.80;6.27;;;15.50;95.90;;;16.06;62.75;99210.44;4967523;28;113139;-71
2022/10/13 00:09:31;;;;;;;8.50;5.33;;;15.60;95.90;;;16.07;63.03;99206.50;4965108;28;112986;-72
2022/10/13 00:11:58;;;;;;;11.73;6.13;;;15.60;95.90;;;16.07;62.78;99210.09;4963042;28;123906;-72
2022/10/13 00:14:24;;;;;;;8.03;5.47;;;15.60;95.90;;;16.08;62.68;99213.69;4963589;28;122958;-73
2022/10/13 00:16:51;;;;;;;9.57;6.60;;;15.60;95.80;;;16.07;62.64;99215.69;4958557;28;113896;-71
2022/10/13 00:19:17;;;;;;;9.23;6.37;;;15.60;95.80;;;16.07;62.67;99223.22;4966189;28;114171;-72
2022/10/13 00:21:43;;;;;;;12.17;7.30;;;15.60;95.80;;;16.06;62.77;99229.94;4962431;28;123024;-72
2022/10/13 00:24:10;;;;;;;10.23;5.70;;;15.60;95.80;;;16.05;62.67;99222.75;4963465;28;122862;-71
2022/10/13 00:26:37;;;;;;;15.90;7.90;;;15.60;95.80;;;16.04;62.76;99233.09;4967028;28;116329;-71
2022/10/13 00:29:04;;;;;;;19.43;9.33;;;15.60;95.90;;;16.00;63.03;99222.94;4964444;28;115088;-72
2022/10/13 00:31:31;;;;;;;13.87;8.70;;;15.50;96.00;;;15.93;63.15;99228.22;4956045;28;124456;-72
2022/10/13 00:34:00;;;;;;;17.00;8.77;;;15.50;96.00;;;15.90;63.14;99221.34;4936574;28;123321;-72
2022/10/13 00:36:27;;;;;;;15.33;9.43;;;15.40;96.10;;;15.90;63.20;99221.34;4957927;28;114857;-72
2022/10/13 00:38:55;;;;;;;15.00;8.90;;;15.40;96.20;;;15.89;63.38;99226.13;4949851;28;114328;-72
2022/10/13 00:41:22;;;;;;;15.93;9.60;;;15.40;96.20;;;15.89;63.49;99220.53;4950550;28;123992;-72
2022/10/13 00:44:06;;;;;;;18.73;10.70;;;15.40;96.20;;;15.88;63.57;99212.53;4952119;28;124177;-72
2022/10/13 00:46:35;;;;;;;16.13;9.60;;;15.40;96.30;;;15.87;63.48;99227.59;4950557;28;114091;-72
2022/10/13 00:49:13;;;;;;;17.40;9.83;;;15.40;96.30;;;15.83;63.75;99216.31;4960704;28;114026;-72
2022/10/13 00:51:44;;;;;;;16.10;9.13;;;15.40;96.30;;;15.81;63.81;99212.25;4949678;28;123435;-72
2022/10/13 00:54:16;;;;;;;15.20;9.70;;;15.40;96.30;;;15.80;64.04;99200.28;4953389;28;123777;-72
2022/10/13 00:56:44;;;;;;;18.30;9.30;;;15.40;96.40;;;15.79;63.79;99203.41;4953458;28;114284;-72
2022/10/13 00:59:29;;;;;;;16.00;9.50;;;15.30;96.30;;;15.80;63.95;99205.88;4955003;28;114093;-71
2022/10/13 01:01:58;;;;;;;16.67;9.37;;;15.40;96.50;;;15.81;64.15;99213.06;4958804;28;126114;-71
2022/10/13 01:04:31;;;;;;;15.20;7.73;;;15.30;96.50;;;15.81;63.68;99201.91;4958928;28;123784;-72
2022/10/13 01:06:59;;;;;;;13.87;9.47;;;15.30;96.50;;;15.80;64.27;99208.66;4956328;28;114367;-72
2022/10/13 01:09:25;;;;;;;18.27;8.60;;;15.40;96.60;;;15.81;64.03;99206.66;4960357;28;113941;-71
2022/10/13 01:12:16;;;;;;;15.07;9.20;;;15.40;96.90;;;15.81;63.99;99207.47;4964305;28;124087;-72
2022/10/13 01:15:06;;;;;;;17.70;8.13;;;15.30;96.60;;;15.85;64.41;99204.81;4958371;28;124334;-72
2022/10/13 01:17:55;;;;;;;16.20;9.10;;;15.30;96.70;;;15.84;64.22;99206.00;4959924;28;114106;-72
2022/10/13 01:20:43;;;;;;;17.57;9.80;;;15.40;96.70;;;15.79;64.09;99201.41;4955910;28;114999;-72
2022/10/13 01:23:32;;;;;;;14.70;8.70;;;15.30;96.70;;;15.75;64.37;99203.28;4965368;28;123199;-72
2022/10/13 01:26:47;;;;;;;14.73;7.93;;;15.30;96.80;;;15.74;64.60;99204.41;4964889;28;123956;-72
2022/10/13 01:29:56;;;;;;;14.77;9.83;;;15.30;96.80;;;15.74;64.43;99209.97;4958956;28;114008;-72
2022/10/13 01:32:28;;;;;;;15.83;9.50;;;15.30;96.80;;;15.76;64.69;99202.09;4979473;28;113073;-72
2022/10/13 01:35:14;;;;;;;13.90;8.50;;;15.20;96.80;;;15.76;64.42;99193.75;4959862;28;124599;-72
2022/10/13 01:38:17;;;;;;;17.73;9.80;;;15.30;96.90;;;15.78;64.55;99194.22;4964815;28;123668;-71
2022/10/13 01:41:19;;;;;;;18.20;9.20;;;15.30;96.90;;;15.78;64.30;99190.63;4958749;28;114058;-71
2022/10/13 01:44:11;;;;;;;15.17;9.70;;;15.40;96.90;;;15.80;64.45;99189.16;4968298;28;113114;-72
2022/10/13 01:46:38;;;;;;;14.63;8.30;;;15.30;96.90;;;15.80;64.42;99186.34;4952204;28;124440;-72
2022/10/13 01:49:12;;;;;;;18.13;9.17;;;15.30;96.90;;;15.83;64.59;99190.44;4957161;28;123858;-72
2022/10/13 01:51:41;;;;;;;16.57;8.70;;;15.40;97.00;;;15.83;64.30;99185.69;4960330;28;113922;-72
2022/10/13 01:54:07;;;;;;;17.33;10.27;;;15.40;97.00;;;15.84;64.41;99187.28;4946970;28;114027;-72
2022/10/13 01:56:33;;;;;;;19.10;8.77;;;15.40;97.00;;;15.86;64.61;99187.78;4958587;28;123999;-72
2022/10/13 01:59:05;;;;;;;14.00;8.70;;;15.40;97.00;;;15.87;64.67;99188.59;4962134;28;124386;-71
2022/10/13 02:02:18;;;;;;;19.37;8.80;;;15.40;97.00;;;15.86;64.66;99182.22;4951316;28;113266;-72
2022/10/13 02:05:08;;;;;;;15.07;7.73;;;15.40;97.00;;;15.86;64.42;99171.06;4965073;28;113909;-72
2022/10/13 02:08:07;;;;;;;12.07;8.07;;;15.40;97.00;;;15.85;64.42;99175.00;4967508;28;123352;-72
2022/10/13 02:10:47;;;;;;;16.30;8.80;;;15.40;97.00;;;15.87;64.54;99178.25;4950671;28;123794;-71
2022/10/13 02:13:19;;;;;;;13.20;9.20;;;15.40;97.10;;;15.88;64.78;99179.91;4968082;28;115481;-72
2022/10/13 02:15:53;;;;;;;20.23;9.00;;;15.40;97.10;;;15.87;64.56;99183.81;4960002;28;114628;-72
2022/10/13 02:18:27;;;;;;;13.23;9.10;;;17.00;97.80;;;15.87;64.64;99172.69;4963873;28;123949;-72
2022/10/13 02:20:54;;;;;;;14.70;8.70;;;15.40;97.40;;;15.88;64.53;99173.53;4961463;28;123548;-72
2022/10/13 02:23:21;;;;;;;17.47;9.20;;;15.40;97.10;;;15.86;64.68;99175.81;4964342;28;114903;-72
2022/10/13 02:25:49;;;;;;;17.77;10.53;;;15.40;97.10;;;15.84;64.60;99178.94;4964361;28;113962;-72
2022/10/13 02:28:16;;;;;;;16.17;9.03;;;15.30;97.10;;;15.84;64.67;99178.94;4967600;28;124131;-72
2022/10/13 02:30:45;;;;;;;19.60;10.40;;;15.40;97.10;;;15.84;64.71;99178.94;4958020;28;123829;-72
2022/10/13 02:33:13;;;;;;;24.00;9.77;;;15.40;97.20;;;15.85;64.78;99182.53;4965069;28;114114;-72
2022/10/13 02:35:40;;;;;;;14.37;9.67;;;15.50;97.20;;;15.85;64.81;99186.16;4963291;28;114482;-72
2022/10/13 02:38:07;;;;;;;19.60;10.60;;;15.40;97.20;;;15.87;64.79;99183.03;4963979;28;124072;-72
2022/10/13 02:40:34;;;;;;;12.40;8.40;;;15.40;97.20;;;15.89;64.94;99177.94;4960614;28;123473;-72
2022/10/13 02:43:00;;;;;;;14.70;8.53;;;15.70;97.30;;;15.92;64.82;99184.81;4951413;28;113087;-73
2022/10/13 02:45:27;;;;;;;24.40;9.43;;;15.40;97.20;;;15.94;64.70;99182.50;4961541;28;114058;-71
2022/10/13 02:47:55;;;;;;;19.47;9.70;;;15.40;97.20;;;15.94;64.55;99176.94;4961627;28;124130;-71
2022/10/13 02:50:21;;;;;;;17.87;8.10;;;15.40;97.20;;;15.96;64.73;99178.22;4963741;28;123665;-71
2022/10/13 02:52:48;;;;;;;17.93;9.33;;;15.50;97.30;;;15.96;64.72;99180.16;4961781;28;113258;-72
2022/10/13 02:55:14;;;;;;;16.63;9.47;;;15.50;97.20;;;15.96;64.58;99180.16;4957745;28;112951;-71
2022/10/13 02:57:41;;;;;;;18.50;10.47;;;15.50;97.20;;;15.93;64.28;99175.28;4956113;28;124595;-72
2022/10/13 03:00:13;;;;;;;12.47;8.20;;;15.40;97.20;;;15.94;64.98;99171.34;4963851;28;124127;-73
2022/10/13 03:02:40;;;;;;;17.33;9.37;;;15.50;97.20;;;15.93;64.70;99175.28;4961836;28;115019;-72
2022/10/13 03:05:07;;;;;;;15.23;8.37;;;15.40;97.20;;;15.90;64.69;99174.81;4957502;28;115077;-71
2022/10/13 03:07:33;;;;;;;21.43;9.30;;;15.40;97.20;;;15.89;64.72;99170.38;4966241;28;124318;-71
2022/10/13 03:10:00;;;;;;;15.37;9.17;;;15.40;97.20;;;15.90;64.84;99172.03;4947519;28;125361;-71
2022/10/13 03:12:27;;;;;;;18.77;8.07;;;15.40;97.20;;;15.90;64.80;99166.47;4967394;28;114082;-72
2022/10/13 03:14:53;;;;;;;19.23;10.00;;;15.40;97.30;;;15.92;64.70;99173.66;4963701;28;114047;-71
2022/10/13 03:17:20;;;;;;;20.00;8.90;;;15.40;97.30;;;15.94;64.76;99161.00;4964470;28;124139;-71
2022/10/13 03:19:47;;;;;;;14.90;9.00;;;15.40;97.30;;;15.94;64.75;99169.38;4966271;28;123905;-71
2022/10/13 03:22:14;;;;;;;18.40;11.33;;;15.50;97.60;;;15.93;64.76;99152.97;4954185;28;114926;-71
2022/10/13 03:24:41;;;;;;;18.20;10.07;;;15.40;97.30;;;15.93;64.78;99155.75;4957655;28;114083;-71
2022/10/13 03:27:08;;;;;;;18.13;11.13;;;15.50;97.30;;;15.92;64.66;99154.97;4959927;28;124560;-71
2022/10/13 03:29:35;;;;;;;15.30;9.53;;;15.40;97.20;;;15.93;64.67;99152.97;4965298;28;123794;-71
2022/10/13 03:32:02;;;;;;;15.90;9.23;;;15.40;97.20;;;15.93;64.69;99148.22;4961791;28;114139;-71
2022/10/13 03:34:28;;;;;;;21.73;10.07;;;15.40;97.20;;;15.92;64.70;99148.56;4959562;28;114124;-71
2022/10/13 03:36:55;;;;;;;15.23;9.10;;;15.40;97.20;;;15.93;64.84;99128.72;4960601;28;124004;-71
2022/10/13 03:39:21;;;;;;;21.80;9.70;;;15.50;97.30;;;15.94;64.62;99133.16;4967228;28;123837;-71
2022/10/13 03:41:48;;;;;;;22.07;9.47;;;15.50;97.30;;;15.95;64.55;99136.75;4968841;28;115097;-71
2022/10/13 03:44:15;;;;;;;14.60;9.73;;;15.40;97.20;;;15.96;64.79;99130.00;4961866;28;114068;-72
2022/10/13 03:46:41;;;;;;;20.90;10.00;;;15.50;97.30;;;15.99;64.54;99130.16;4965953;28;123929;-72
2022/10/13 03:49:10;;;;;;;14.90;9.43;;;15.50;97.30;;;15.97;64.40;99131.66;4959371;28;123719;-72
2022/10/13 03:51:37;;;;;;;18.30;10.43;;;15.60;97.30;;;15.96;64.54;99133.63;4969198;28;115400;-71
2022/10/13 03:54:03;;;;;;;13.23;8.30;;;15.50;97.30;;;15.95;64.68;99131.16;4958492;28;115520;-71
2022/10/13 03:56:30;;;;;;;14.07;8.40;;;15.40;97.20;;;15.93;64.56;99141.84;4956600;28;123320;-71
2022/10/13 03:58:59;;;;;;;16.50;8.40;;;15.40;97.20;;;15.90;64.68;99144.16;4967941;28;123601;-71
2022/10/13 04:01:28;;;;;;;20.23;10.70;;;15.40;97.20;;;15.92;64.58;99145.78;4943245;28;113853;-71
2022/10/13 04:03:57;;;;;;;14.40;8.80;;;15.40;97.20;;;15.92;64.45;99146.59;4949920;28;114511;-72
2022/10/13 04:06:25;;;;;;;14.10;8.30;;;15.40;97.20;;;15.93;64.61;99145.44;4964690;28;123555;-71
2022/10/13 04:08:52;;;;;;;15.40;8.70;;;15.40;97.20;;;15.94;64.57;99138.72;4967020;28;123882;-71
2022/10/13 04:11:19;;;;;;;12.40;8.07;;;15.50;97.20;;;15.97;64.46;99149.19;4969681;28;115573;-72
2022/10/13 04:13:46;;;;;;;12.90;7.90;;;15.40;97.20;;;15.98;64.50;99144.41;4959281;28;114022;-71
2022/10/13 04:16:19;;;;;;;11.87;8.20;;;15.50;97.20;;;15.98;64.54;99150.00;4967563;28;124545;-72
2022/10/13 04:18:52;;;;;;;14.27;8.43;;;15.50;97.20;;;15.99;64.44;99152.47;4969004;28;123753;-72
2022/10/13 04:21:19;;;;;;;18.70;9.80;;;15.50;97.20;;;15.99;64.50;99144.09;4956182;28;114898;-71
2022/10/13 04:23:45;;;;;;;18.17;8.93;;;15.50;97.40;;;16.01;64.38;99139.00;4957373;28;114092;-72
2022/10/13 04:26:21;;;;;;;17.60;9.00;;;15.50;97.20;;;16.00;64.35;99128.19;4966370;28;124097;-72
2022/10/13 04:28:50;;;;;;;17.17;9.70;;;15.50;97.10;;;15.98;64.42;99133.28;4965126;28;124155;-71
2022/10/13 04:31:20;;;;;;;13.07;8.70;;;15.50;97.10;;;15.96;64.39;99130.84;4966105;28;114351;-71
2022/10/13 04:33:48;;;;;;;13.67;8.20;;;15.40;97.10;;;15.97;64.22;99137.22;4955117;28;114073;-72
2022/10/13 04:36:15;;;;;;;15.43;9.03;;;15.50;97.20;;;15.98;64.21;99138.84;4956889;28;123958;-72
2022/10/13 04:38:42;;;;;;;13.10;8.53;;;15.50;97.10;;;16.00;64.50;99130.97;4952238;28;122771;-72
2022/10/13 04:41:12;;;;;;;17.33;10.40;;;15.50;97.10;;;16.00;64.16;99142.94;4958407;28;115670;-72
2022/10/13 04:43:39;;;;;;;12.33;8.50;;;15.50;97.10;;;16.01;64.47;99139.00;4954740;28;115011;-72
2022/10/13 04:46:14;;;;;;;13.40;9.27;;;15.50;97.10;;;16.02;64.27;99139.81;4955292;28;124022;-72
2022/10/13 04:48:41;;;;;;;13.13;7.93;;;15.50;97.10;;;16.02;64.21;99142.59;4951535;28;123781;-72
2022/10/13 04:51:11;;;;;;;14.53;9.37;;;15.50;97.00;;;16.01;64.08;99132.59;4962098;28;114375;-71
2022/10/13 04:53:38;;;;;;;13.90;9.47;;;15.50;97.00;;;16.00;63.76;99125.41;4949803;28;113881;-72
2022/10/13 04:56:09;;;;;;;17.13;8.60;;;15.60;97.00;;;15.97;64.32;99129.69;4951118;28;123812;-71
2022/10/13 04:58:36;;;;;;;14.27;8.27;;;15.50;96.90;;;15.97;63.99;99117.72;4955876;28;123821;-71
2022/10/13 05:01:05;;;;;;;16.40;8.00;;;15.50;96.90;;;15.97;64.02;99117.72;4967634;28;114355;-71
2022/10/13 05:03:33;;;;;;;19.80;8.70;;;15.50;96.90;;;15.97;64.13;99109.34;4957065;28;114117;-70
2022/10/13 05:06:00;;;;;;;14.03;8.53;;;15.50;97.00;;;15.98;64.19;99106.22;4957143;28;123286;-70
2022/10/13 05:08:27;;;;;;;17.90;8.90;;;15.50;97.00;;;15.98;64.15;99106.22;4956262;28;123782;-71
2022/10/13 05:10:59;;;;;;;10.63;8.17;;;15.40;96.90;;;15.99;64.05;99110.66;4963730;28;114783;-71
2022/10/13 05:13:28;;;;;;;15.80;8.07;;;15.50;96.90;;;15.99;64.12;99115.41;4962554;28;114688;-72
2022/10/13 05:15:55;;;;;;;14.80;8.27;;;15.50;96.90;;;15.98;63.85;99119.34;4967527;28;124016;-71
2022/10/13 05:18:22;;;;;;;11.70;8.20;;;15.50;96.90;;;15.95;63.63;99122.81;4962046;28;123828;-70
2022/10/13 05:20:48;;;;;;;21.77;9.70;;;15.50;96.90;;;15.93;63.84;99119.53;4963949;28;114552;-71
2022/10/13 05:23:16;;;;;;;20.00;8.60;;;15.40;96.80;;;15.89;64.14;99128.59;4961634;28;114631;-71
2022/10/13 05:25:42;;;;;;;15.13;9.33;;;15.50;96.90;;;15.90;64.00;99132.19;4959284;28;124095;-72
2022/10/13 05:28:09;;;;;;;12.73;8.57;;;15.40;96.90;;;15.87;64.08;99128.09;4957183;28;123793;-71
2022/10/13 05:30:35;;;;;;;15.50;8.10;;;15.40;96.80;;;15.83;64.00;99129.94;4948026;28;115526;-72
2022/10/13 05:33:02;;;;;;;15.93;9.13;;;15.40;96.80;;;15.80;63.94;99127.03;4949253;28;114916;-73
2022/10/13 05:35:28;;;;;;;18.27;8.20;;;15.30;96.70;;;15.76;64.10;99138.03;4948805;28;124539;-72
2022/10/13 05:37:55;;;;;;;14.77;8.50;;;15.30;96.70;;;15.74;64.10;99134.75;4951223;28;123627;-72
2022/10/13 05:40:21;;;;;;;13.93;8.13;;;15.30;96.70;;;15.72;64.29;99131.50;4955362;28;114201;-73
2022/10/13 05:42:52;;;;;;;15.60;8.03;;;15.30;96.80;;;15.74;64.26;99133.94;4959640;28;113179;-72
2022/10/13 05:45:20;;;;;;;18.17;9.30;;;15.30;96.80;;;15.71;64.07;99138.22;4952687;28;124795;-72
2022/10/13 05:47:47;;;;;;;16.30;8.23;;;15.30;96.70;;;15.65;64.11;99137.56;4953099;28;123892;-72
2022/10/13 05:50:13;;;;;;;14.47;9.47;;;15.20;96.70;;;15.62;64.07;99137.44;4954497;28;113324;-71
2022/10/13 05:52:41;;;;;;;13.40;9.10;;;15.20;96.70;;;15.59;64.33;99143.69;4954859;28;113952;-70
2022/10/13 05:55:10;;;;;;;13.13;8.00;;;15.20;96.70;;;15.58;64.44;99147.63;4952420;28;124326;-72
2022/10/13 05:57:41;;;;;;;16.23;8.90;;;15.20;96.80;;;15.58;64.17;99137.31;4958347;28;123712;-71
2022/10/13 06:00:13;;;;;;;12.70;8.30;;;15.10;96.80;;;15.59;64.35;99135.34;4951492;28;114273;-71
2022/10/13 06:03:03;;;;;;;17.93;9.57;;;15.20;96.90;;;15.62;64.43;99129.09;4961652;28;113990;-71
2022/10/13 06:05:31;;;;;;;12.10;8.03;;;15.20;96.90;;;15.66;64.20;99127.25;4947043;28;124553;-72
2022/10/13 06:07:58;;;;;;;11.50;6.30;;;15.20;96.90;;;15.70;64.77;99122.69;4963727;28;123751;-76
2022/10/13 06:10:25;;;;;;;7.97;5.70;;;15.20;97.00;;;15.80;65.75;99125.06;4964064;28;114457;-82
2022/10/13 06:12:51;;;;;;;16.30;8.40;;;15.30;97.60;;;15.95;65.63;99117.22;4959472;28;114248;-77
2022/10/13 06:15:18;;;;;;;14.30;8.37;;;16.40;98.40;;;16.02;65.56;99120.31;4955197;28;124069;-75
2022/10/13 06:17:45;;;;;;;15.03;8.90;;;15.40;97.90;;;16.10;65.56;99109.06;4961678;28;124658;-74
2022/10/13 06:20:11;;;;;;;19.37;10.03;;;15.50;98.00;;;16.15;65.19;99113.63;4976163;28;115948;-74
2022/10/13 06:22:38;;;;;;;12.30;7.80;;;15.50;97.90;;;16.21;65.47;99115.03;4964288;28;115783;-75
2022/10/13 06:25:07;;;;;;;14.70;8.07;;;15.60;97.90;;;16.31;65.17;99117.41;4958928;28;124821;-70
2022/10/13 06:27:33;;;;;;;14.37;8.50;;;15.70;98.00;;;16.41;64.92;99115.34;4946871;28;123771;-73
2022/10/13 06:30:00;;;;;;;13.83;7.30;;;15.70;97.90;;;16.51;64.96;99117.69;4960575;28;114003;-76
2022/10/13 06:32:26;;;;;;;14.00;7.97;;;15.80;97.90;;;16.61;64.64;99122.84;4961812;28;114220;-73
2022/10/13 06:34:53;;;;;;;16.30;8.30;;;15.90;97.90;;;16.69;64.10;99130.31;4945153;28;124034;-73
2022/10/13 06:37:20;;;;;;;11.90;6.83;;;16.00;97.80;;;16.74;64.04;99132.88;4959117;28;124035;-73
2022/10/13 06:39:46;;;;;;;15.33;8.30;;;16.10;97.70;;;16.78;63.51;99128.25;4965590;28;114571;-72
2022/10/13 06:42:12;;;;;;;14.80;8.93;;;16.10;97.80;;;16.78;63.10;99127.44;4947888;28;113129;-74
2022/10/13 06:44:39;;;;;;;20.90;9.30;;;16.10;97.20;;;16.75;63.03;99128.09;4957753;28;124475;-73
2022/10/13 06:47:05;;;;;;;15.60;9.50;;;16.10;96.90;;;16.69;62.58;99127.50;4962245;28;124067;-73
2022/10/13 06:49:32;;;;;;;15.50;9.03;;;16.10;96.70;;;16.63;62.54;99126.13;4956674;28;114331;-73
2022/10/13 06:51:59;;;;;;;17.40;8.40;;;16.10;96.60;;;16.59;62.54;99119.56;4951162;28;113854;-73
2022/10/13 06:54:25;;;;;;;14.30;9.40;;;16.10;96.50;;;16.56;62.51;99117.47;4951155;28;124696;-75
2022/10/13 06:56:52;;;;;;;18.80;9.40;;;16.00;96.40;;;16.52;62.29;99117.38;4952551;28;123777;-74
2022/10/13 06:59:18;;;;;;;18.37;10.97;;;16.00;96.30;;;16.48;62.49;99112.81;4957052;28;115129;-73
2022/10/13 07:01:49;;;;;;;21.60;9.90;;;16.00;96.20;;;16.42;62.50;99114.19;4949960;28;114201;-76
2022/10/13 07:04:15;;;;;;;20.33;9.33;;;15.90;96.20;;;16.39;62.41;99115.69;4958529;28;124038;-76
2022/10/13 07:06:42;;;;;;;12.67;8.03;;;15.90;96.20;;;16.38;62.52;99124.38;4957041;28;124229;-74
2022/10/13 07:09:09;;;;;;;17.03;9.30;;;15.90;96.20;;;16.35;62.50;99121.13;4966962;28;115230;-73
2022/10/13 07:11:36;;;;;;;17.23;8.80;;;15.90;96.20;;;16.35;62.47;99123.91;4970526;28;115602;-73
2022/10/13 07:14:02;;;;;;;12.80;7.23;;;15.80;96.10;;;16.31;62.48;99125.78;4970895;28;124017;-74
2022/10/13 07:16:30;;;;;;;16.00;9.83;;;15.80;96.10;;;16.28;62.56;99126.47;4969994;28;123855;-75
2022/10/13 07:18:56;;;;;;;16.73;9.77;;;15.80;96.10;;;16.26;62.44;99125.97;4969251;28;115179;-73
2022/10/13 07:21:22;;;;;;;16.77;8.53;;;15.80;96.10;;;16.25;62.48;99126.31;4967313;28;113839;-76
2022/10/13 07:23:49;;;;;;;14.63;8.33;;;15.80;96.10;;;16.24;62.69;99125.50;4966504;28;124210;-75
2022/10/13 07:26:15;;;;;;;18.53;9.37;;;15.90;96.10;;;16.26;62.32;99128.78;4968838;28;123641;-76
2022/10/13 07:28:43;;;;;;;9.87;7.00;;;15.80;96.10;;;16.27;62.48;99122.03;4960029;28;114431;-77
2022/10/13 07:31:13;;;;;;;15.60;8.47;;;15.80;96.10;;;16.30;62.53;99112.16;4969122;28;114329;-77
2022/10/13 07:33:43;;;;;;;19.13;10.13;;;15.80;96.10;;;16.31;62.34;99113.81;4957189;28;124209;-74
2022/10/13 07:36:11;;;;;;;11.70;8.00;;;15.80;96.10;;;16.30;62.41;99112.16;4948907;28;122199;-75
2022/10/13 07:38:38;;;;;;;18.27;8.47;;;15.90;96.10;;;16.30;62.15;99117.72;4966576;28;114455;-75
2022/10/13 07:41:09;;;;;;;21.20;10.00;;;15.80;96.00;;;16.27;62.22;99116.44;4970035;28;114681;-76
2022/10/13 07:43:35;;;;;;;15.30;9.73;;;15.80;95.90;;;16.24;62.26;99119.13;4969161;28;124960;-79
2022/10/13 07:46:03;;;;;;;20.53;9.63;;;15.80;95.90;;;16.25;62.40;99115.97;4968107;28;124160;-75
2022/10/13 07:48:31;;;;;;;16.07;9.83;;;15.80;96.00;;;16.26;62.16;99112.03;4959177;28;113722;-76
2022/10/13 07:50:58;;;;;;;20.63;10.00;;;15.80;96.00;;;16.26;62.20;99123.19;4963541;28;113931;-75
2022/10/13 07:53:25;;;;;;;13.20;8.30;;;15.80;95.90;;;16.27;62.38;99119.22;4969950;28;123938;-74
2022/10/13 07:55:51;;;;;;;11.10;8.00;;;15.80;95.90;;;16.29;62.18;99116.94;4950678;28;123833;-74
2022/10/13 07:58:18;;;;;;;12.77;7.80;;;15.80;95.90;;;16.32;62.14;99116.25;4966238;28;115205;-74
2022/10/13 08:00:44;;;;;;;15.73;9.33;;;15.90;96.00;;;16.37;62.04;99106.03;4960252;28;114299;-73
2022/10/13 08:03:11;;;;;;;14.70;8.40;;;15.80;95.90;;;16.38;62.04;99102.09;4967310;28;124025;-74
2022/10/13 08:05:38;;;;;;;19.33;9.23;;;15.90;95.90;;;16.39;62.09;99106.50;4964854;28;123626;-72
2022/10/13 08:08:04;;;;;;;15.93;8.50;;;15.90;95.90;;;16.40;62.07;99106.16;4967312;28;114782;-73
2022/10/13 08:10:30;;;;;;;16.23;7.80;;;15.90;95.90;;;16.42;61.82;99105.84;4967357;28;114061;-77
2022/10/13 08:12:57;;;;;;;18.20;8.83;;;15.90;95.80;;;16.43;61.95;99107.44;4969155;28;124451;-74
2022/10/13 08:15:23;;;;;;;16.20;8.30;;;15.90;95.80;;;16.42;61.87;99098.28;4963913;28;123696;-74
2022/10/13 08:17:50;;;;;;;12.53;8.27;;;15.90;95.80;;;16.46;61.52;99099.19;4968377;28;113752;-74
2022/10/13 08:20:17;;;;;;;20.50;7.87;;;16.00;95.80;;;16.50;61.98;99088.19;4967259;28;114099;-74
2022/10/13 08:22:43;;;;;;;16.00;7.57;;;16.00;95.80;;;16.53;61.86;99084.69;4956972;28;124628;-74
2022/10/13 08:25:10;;;;;;;11.40;7.13;;;16.10;95.80;;;16.59;61.62;99091.69;4964575;28;123891;-73
2022/10/13 08:27:37;;;;;;;13.33;6.60;;;16.10;95.80;;;16.66;61.63;99091.94;4964153;28;114615;-77
2022/10/13 08:30:05;;;;;;;13.77;6.90;;;16.10;95.80;;;16.73;61.72;99078.22;4967930;28;113815;-76
2022/10/13 08:32:31;;;;;;;20.70;7.77;;;16.20;95.80;;;16.78;61.39;99083.59;4969971;28;123952;-76
2022/10/13 08:34:58;;;;;;;13.80;6.80;;;16.20;95.70;;;16.84;61.20;99086.16;4965796;28;124180;-76
2022/10/13 08:37:24;;;;;;;16.07;7.57;;;16.30;95.70;;;16.87;60.92;99077.09;4962343;28;114649;-76
2022/10/13 08:39:55;;;;;;;17.70;8.37;;;16.30;95.60;;;16.92;60.80;99074.06;4968353;28;114083;-76
2022/10/13 08:42:22;;;;;;;14.13;8.37;;;16.40;95.50;;;16.94;60.60;99077.34;4964385;28;124124;-75
2022/10/13 08:44:54;;;;;;;14.10;7.63;;;16.40;95.40;;;16.96;60.89;99086.19;4964187;28;123989;-76
2022/10/13 08:47:45;;;;;;;10.27;6.57;;;16.40;95.40;;;16.98;60.57;99081.88;4966809;28;115091;-74
2022/10/13 08:50:20;;;;;;;11.97;6.67;;;16.40;95.40;;;17.02;60.53;99076.41;4965199;28;114309;-76
2022/10/13 08:52:57;;;;;;;11.40;7.40;;;16.50;95.30;;;17.06;60.35;99071.78;4959781;28;122928;-77
2022/10/13 08:55:47;;;;;;;15.20;6.30;;;16.50;95.20;;;17.09;60.36;99071.06;4958101;28;124061;-77
2022/10/13 08:58:23;;;;;;;14.13;7.17;;;16.50;95.10;;;17.14;60.10;99072.78;4957630;28;114945;-75
2022/10/13 09:01:26;;;;;;;16.90;7.70;;;16.60;95.20;;;17.13;59.92;99080.38;4968696;28;113946;-77
2022/10/13 09:03:52;;;;;;;11.40;7.43;;;16.60;94.90;;;17.14;59.84;99070.84;4957299;28;124006;-77
2022/10/13 09:06:27;;;;;;;13.53;7.03;;;16.60;94.90;;;17.16;59.63;99064.88;4963378;28;123881;-75
2022/10/13 09:09:04;;;;;;;13.67;6.17;;;16.60;94.80;;;17.16;59.63;99076.06;4954785;28;114403;-74
2022/10/13 09:11:35;;;;;;;12.23;7.10;;;16.60;94.80;;;17.16;59.66;99071.28;4958057;28;114273;-75
2022/10/13 09:14:07;;;;;;;15.30;6.70;;;16.60;94.70;;;17.18;59.58;99068.97;4962287;28;124227;-75
2022/10/13 09:16:44;;;;;;;11.10;5.60;;;17.50;95.10;;;17.25;59.64;99078.72;4962722;28;124192;-76
2022/10/13 09:19:26;;;;;;;11.60;6.20;;;16.70;94.70;;;17.31;59.33;99071.75;4949317;28;114658;-75
2022/10/13 09:21:56;;;;;;;13.40;7.07;;;16.80;94.70;;;17.33;59.34;99077.78;4962475;28;114983;-74
2022/10/13 09:24:25;;;;;;;12.57;7.30;;;16.80;94.60;;;17.32;59.09;99073.38;4962634;28;123456;-76
2022/10/13 09:27:10;;;;;;;9.10;5.90;;;16.80;94.50;;;17.37;59.31;99073.13;4976290;28;122792;-73
2022/10/13 09:29:37;;;;;;;10.57;5.83;;;16.80;94.60;;;17.40;59.28;99075.22;4967239;28;114248;-75
2022/10/13 09:32:22;;;;;;;11.50;6.10;;;16.80;94.50;;;17.43;59.31;99068.94;4964913;28;113951;-73
2022/10/13 09:34:50;;;;;;;10.70;5.57;;;18.40;95.20;;;17.48;59.24;99068.69;4966162;28;124285;-74
2022/10/13 09:37:24;;;;;;;12.00;6.47;;;16.90;94.50;;;17.53;59.15;99074.03;4950556;28;123786;-75
2022/10/13 09:40:21;;;;;;;7.87;4.90;;;17.00;94.50;;;17.55;59.12;99063.34;4963229;28;116078;-75
2022/10/13 09:42:53;;;;;;;9.90;6.20;;;17.00;94.40;;;17.57;58.80;99069.41;4959836;28;115118;-75
2022/10/13 09:45:23;;;;;;;9.00;5.40;;;17.00;94.40;;;17.58;58.83;99073.81;4954645;28;124190;-74
2022/10/13 09:48:20;;;;;;;6.47;4.80;;;17.10;94.40;;;17.62;58.90;99074.75;4948087;28;123678;-75
2022/10/13 09:50:54;;;;;;;8.20;4.87;;;17.20;94.40;;;17.67;58.74;99074.47;4936314;28;113614;-76
2022/10/13 09:53:32;;;;;;;8.40;5.60;;;17.30;94.40;;;17.72;58.89;99075.41;4957406;28;113846;-74
2022/10/13 09:56:09;;;;;;;10.83;4.90;;;17.20;94.30;;;17.74;58.54;99062.69;4956721;28;124105;-74
2022/10/13 09:58:50;;;;;;;7.20;4.93;;;17.20;94.30;;;17.77;58.60;99059.19;4957565;28;124902;-75
2022/10/13 10:01:25;;;;;;;11.07;4.63;;;17.30;94.30;;;17.83;58.65;99065.38;4952094;28;114456;-74
2022/10/13 10:03:52;;;;;;;9.53;4.80;;;17.30;94.30;;;17.88;58.71;99056.75;4954177;28;113705;-75
2022/10/13 10:06:20;;;;;;;9.83;4.73;;;17.40;94.30;;;17.96;58.49;99058.56;4941765;28;124390;-76
2022/10/13 10:09:14;;;;;;;8.40;4.67;;;17.50;94.30;;;18.04;58.40;99054.81;4958563;28;124199;-75
2022/10/13 10:11:46;;;;;;;7.70;4.83;;;17.50;94.20;;;18.09;58.28;99060.16;4961776;28;115013;-76
2022/10/13 10:14:28;;;;;;;7.77;5.30;;;17.50;94.10;;;18.13;58.17;99053.84;4940654;28;114040;-75
2022/10/13 10:17:10;;;;;;;8.93;3.93;;;17.60;94.00;;;18.17;58.00;99057.56;4949227;28;124132;-74
2022/10/13 10:20:27;;;;;;;10.57;5.30;;;17.60;94.00;;;18.19;57.77;99060.78;4944834;28;123472;-76
2022/10/13 10:23:35;;;;;;;14.27;5.43;;;17.70;93.90;;;18.22;57.75;99057.31;4962121;28;114601;-76